Time;durP1;ratioP1;P1;durP2;ratioP2;P2;SDS_P1;SDS_P2;PMS_P1;PMS_P2;Temp;Humidity;BMP_temperature;BMP_pressure;BME280_temperature;BME280_humidity;BME280_pressure;Samples;Min_cycle;Max_cycle;Signal;HPM_P1;HPM_P2
2023/10/28 00:00:31;;;;;;;13.23;9.20;;;;;;;;;;5014771;28;20049;-68
2023/10/28 00:02:56;;;;;;;7.90;6.93;;;;;;;;;;5015198;28;20422;-68
2023/10/28 00:05:22;;;;;;;10.30;8.50;;;;;;;;;;4997662;28;20026;-68
2023/10/28 00:07:47;;;;;;;10.60;7.97;;;;;;;;;;5014904;28;20470;-68
2023/10/28 00:10:13;;;;;;;9.70;8.05;;;;;;;;;;5014608;28;20026;-68
2023/10/28 00:12:39;;;;;;;8.43;6.95;;;;;;;;;;5014626;28;20026;-68
2023/10/28 00:15:04;;;;;;;10.02;8.23;;;;;;;;;;4997560;28;20095;-68
2023/10/28 00:17:30;;;;;;;10.90;8.50;;;;;;;;;;5014573;28;20076;-68
2023/10/28 00:19:56;;;;;;;10.10;8.05;;;;;;;;;;5014707;28;20507;-68
2023/10/28 00:22:21;;;;;;;11.25;8.23;;;;;;;;;;5014995;28;20117;-68
2023/10/28 00:24:47;;;;;;;10.32;8.35;;;;;;;;;;5014865;28;20100;-68
2023/10/28 00:27:12;;;;;;;10.23;7.53;;;;;;;;;;5014614;28;20400;-68
2023/10/28 00:29:38;;;;;;;8.00;6.50;;;;;;;;;;5014878;28;20050;-63
2023/10/28 00:32:05;;;;;;;7.97;7.18;;;;;;;;;;5014816;28;20412;-63
2023/10/28 00:34:32;;;;;;;8.70;7.55;;;;;;;;;;4996870;28;20056;-63
2023/10/28 00:36:58;;;;;;;10.55;7.75;;;;;;;;;;5014727;28;20188;-63
2023/10/28 00:39:23;;;;;;;8.32;7.45;;;;;;;;;;4996887;28;20453;-63
2023/10/28 00:41:49;;;;;;;8.27;6.75;;;;;;;;;;4996524;28;20477;-63
2023/10/28 00:44:15;;;;;;;7.55;6.47;;;;;;;;;;5014003;28;20033;-61
2023/10/28 00:46:41;;;;;;;8.45;7.43;;;;;;;;;;4996464;28;20469;-61
2023/10/28 00:49:07;;;;;;;7.85;7.05;;;;;;;;;;4997117;28;20130;-61
2023/10/28 00:51:33;;;;;;;7.13;6.50;;;;;;;;;;5014009;28;20026;-61
2023/10/28 00:53:58;;;;;;;9.20;7.43;;;;;;;;;;4979292;28;20400;-61
2023/10/28 00:56:24;;;;;;;8.95;7.53;;;;;;;;;;4996312;28;20390;-61
2023/10/28 00:58:52;;;;;;;7.30;6.07;;;;;;;;;;5007054;28;20042;-61
2023/10/28 01:01:18;;;;;;;8.20;7.38;;;;;;;;;;4994506;28;20154;-61
2023/10/28 01:03:44;;;;;;;8.18;7.22;;;;;;;;;;4977057;28;20079;-67
2023/10/28 01:06:09;;;;;;;7.68;6.90;;;;;;;;;;4994790;28;20427;-63
2023/10/28 01:08:35;;;;;;;8.45;7.57;;;;;;;;;;4976829;28;20057;-67
2023/10/28 01:11:04;;;;;;;9.65;7.82;;;;;;;;;;4983846;23;20146;-68
2023/10/28 01:13:30;;;;;;;11.88;9.00;;;;;;;;;;4975019;28;20033;-68
2023/10/28 01:15:59;;;;;;;10.57;8.07;;;;;;;;;;4973803;28;20066;-67
2023/10/28 01:18:25;;;;;;;8.63;6.90;;;;;;;;;;4974744;28;20059;-61
2023/10/28 01:20:50;;;;;;;9.25;7.45;;;;;;;;;;4974816;28;20047;-61
2023/10/28 01:23:15;;;;;;;9.50;7.93;;;;;;;;;;4975141;28;20043;-62
2023/10/28 01:25:41;;;;;;;8.10;7.25;;;;;;;;;;4974736;28;20030;-62
2023/10/28 01:28:08;;;;;;;9.35;7.15;;;;;;;;;;4973606;28;20033;-62
2023/10/28 01:30:33;;;;;;;8.38;6.70;;;;;;;;;;4974905;28;20414;-62
2023/10/28 01:32:59;;;;;;;6.60;5.95;;;;;;;;;;4973697;28;20085;-61
2023/10/28 01:35:25;;;;;;;7.88;6.28;;;;;;;;;;4974799;28;20035;-62
2023/10/28 01:37:51;;;;;;;7.50;5.80;;;;;;;;;;4974879;28;20146;-62
2023/10/28 01:40:17;;;;;;;7.82;5.85;;;;;;;;;;4975214;28;20119;-61
2023/10/28 01:42:46;;;;;;;6.60;5.95;;;;;;;;;;4975117;28;20030;-61
2023/10/28 01:45:14;;;;;;;9.00;6.45;;;;;;;;;;4973741;28;20113;-61
2023/10/28 01:47:41;;;;;;;7.82;7.07;;;;;;;;;;4975067;28;20111;-61
2023/10/28 01:50:06;;;;;;;8.68;6.15;;;;;;;;;;4974813;28;20474;-61
2023/10/28 01:52:32;;;;;;;9.75;6.85;;;;;;;;;;4974688;28;20027;-61
2023/10/28 01:54:57;;;;;;;8.75;7.18;;;;;;;;;;4974359;28;20031;-61
2023/10/28 01:57:23;;;;;;;8.88;7.30;;;;;;;;;;4973300;28;20045;-61
2023/10/28 01:59:49;;;;;;;8.70;7.80;;;;;;;;;;4973379;28;20034;-61
2023/10/28 02:02:14;;;;;;;11.20;8.65;;;;;;;;;;4973358;28;20163;-61
2023/10/28 02:04:39;;;;;;;11.00;8.60;;;;;;;;;;4973351;28;20035;-61
2023/10/28 02:07:06;;;;;;;10.35;8.68;;;;;;;;;;4976595;28;20097;-61
2023/10/28 02:09:33;;;;;;;11.13;9.57;;;;;;;;;;4978129;28;20022;-61
2023/10/28 02:12:02;;;;;;;12.00;8.75;;;;;;;;;;4976343;28;20054;-61
2023/10/28 02:14:28;;;;;;;13.90;9.88;;;;;;;;;;4976896;28;20038;-61
2023/10/28 02:16:54;;;;;;;15.73;9.57;;;;;;;;;;4976401;28;20027;-62
2023/10/28 02:19:21;;;;;;;14.35;10.23;;;;;;;;;;4977658;28;20037;-62
2023/10/28 02:21:46;;;;;;;12.43;10.27;;;;;;;;;;4976059;28;20089;-61
2023/10/28 02:24:12;;;;;;;15.57;10.63;;;;;;;;;;4977921;28;20371;-63
2023/10/28 02:26:38;;;;;;;12.25;9.13;;;;;;;;;;4977875;28;20031;-63
2023/10/28 02:29:03;;;;;;;14.32;8.73;;;;;;;;;;4977615;28;20031;-63
2023/10/28 02:31:29;;;;;;;11.60;8.07;;;;;;;;;;4977778;28;20057;-63
2023/10/28 02:33:54;;;;;;;9.90;6.63;;;;;;;;;;4976107;28;20475;-64
2023/10/28 02:36:20;;;;;;;8.13;7.18;;;;;;;;;;4976029;28;20054;-64
2023/10/28 02:38:45;;;;;;;7.93;6.85;;;;;;;;;;4977774;28;20484;-62
2023/10/28 02:41:10;;;;;;;8.15;6.70;;;;;;;;;;4977537;28;20058;-63
2023/10/28 02:43:36;;;;;;;7.97;6.95;;;;;;;;;;4976219;28;20031;-62
2023/10/28 02:46:03;;;;;;;7.03;6.20;;;;;;;;;;4976998;28;20035;-62
2023/10/28 02:48:29;;;;;;;8.82;6.05;;;;;;;;;;4975947;28;20089;-63
2023/10/28 02:51:00;;;;;;;7.15;5.85;;;;;;;;;;4976103;28;20455;-62
2023/10/28 02:53:26;;;;;;;7.15;5.68;;;;;;;;;;4977017;28;20400;-62
2023/10/28 02:55:51;;;;;;;5.40;4.95;;;;;;;;;;4977263;28;20030;-62
2023/10/28 02:58:17;;;;;;;7.05;4.93;;;;;;;;;;4977293;28;20070;-62
2023/10/28 03:00:43;;;;;;;4.65;3.92;;;;;;;;;;4976076;28;20069;-62
2023/10/28 03:03:09;;;;;;;4.80;4.35;;;;;;;;;;4977280;28;20532;-62
2023/10/28 03:05:34;;;;;;;4.40;4.00;;;;;;;;;;4977494;28;20121;-62
2023/10/28 03:07:59;;;;;;;4.63;4.25;;;;;;;;;;4975797;28;20029;-62
2023/10/28 03:10:25;;;;;;;4.10;3.80;;;;;;;;;;4982616;28;20046;-64
2023/10/28 03:12:50;;;;;;;4.32;4.03;;;;;;;;;;4996415;28;20161;-62
2023/10/28 03:15:17;;;;;;;4.30;3.95;;;;;;;;;;4996086;28;20047;-63
2023/10/28 03:17:43;;;;;;;5.95;3.92;;;;;;;;;;4977737;28;20467;-63
2023/10/28 03:20:11;;;;;;;3.83;3.42;;;;;;;;;;4995815;28;20054;-62
2023/10/28 03:22:37;;;;;;;4.30;3.55;;;;;;;;;;4978454;28;20026;-63
2023/10/28 03:25:03;;;;;;;3.42;3.13;;;;;;;;;;4978352;28;20038;-63
2023/10/28 03:27:29;;;;;;;3.95;3.38;;;;;;;;;;4978368;28;20073;-63
2023/10/28 03:29:55;;;;;;;3.22;2.97;;;;;;;;;;4996178;28;20054;-63
2023/10/28 03:32:20;;;;;;;3.30;2.85;;;;;;;;;;4996356;28;20030;-62
2023/10/28 03:34:47;;;;;;;3.65;3.10;;;;;;;;;;4978260;28;20113;-62
2023/10/28 03:37:13;;;;;;;2.67;2.45;;;;;;;;;;5010691;28;20124;-62
2023/10/28 03:39:38;;;;;;;4.63;2.65;;;;;;;;;;4977995;28;20076;-63
2023/10/28 03:42:05;;;;;;;3.42;2.70;;;;;;;;;;4978587;28;20038;-62
2023/10/28 03:44:31;;;;;;;2.60;2.30;;;;;;;;;;4995766;28;20603;-63
2023/10/28 03:46:57;;;;;;;2.92;2.30;;;;;;;;;;4995733;28;20363;-62
2023/10/28 03:49:22;;;;;;;2.33;2.13;;;;;;;;;;4995715;28;20113;-63
2023/10/28 03:51:47;;;;;;;2.25;2.05;;;;;;;;;;4995653;28;20490;-62
2023/10/28 03:54:13;;;;;;;2.25;2.15;;;;;;;;;;4995612;28;20030;-62
2023/10/28 03:56:38;;;;;;;2.33;2.13;;;;;;;;;;4995568;28;20112;-62
2023/10/28 03:59:04;;;;;;;1.67;1.58;;;;;;;;;;4995803;28;20442;-62
2023/10/28 04:01:29;;;;;;;1.92;1.83;;;;;;;;;;4995457;28;20108;-62
2023/10/28 04:03:56;;;;;;;2.13;2.00;;;;;;;;;;4995707;28;20479;-62
2023/10/28 04:06:21;;;;;;;2.10;1.85;;;;;;;;;;4977715;28;20474;-64
2023/10/28 04:08:46;;;;;;;1.88;1.77;;;;;;;;;;4995505;28;20034;-63
2023/10/28 04:11:12;;;;;;;2.92;1.80;;;;;;;;;;4994949;28;20121;-62
2023/10/28 04:13:39;;;;;;;1.95;1.65;;;;;;;;;;4995544;28;20041;-65
2023/10/28 04:16:04;;;;;;;2.13;1.95;;;;;;;;;;4995139;28;20049;-64
2023/10/28 04:18:30;;;;;;;2.03;1.88;;;;;;;;;;5011032;28;20026;-65
2023/10/28 04:20:56;;;;;;;4.10;1.85;;;;;;;;;;4977420;28;20375;-65
2023/10/28 04:23:21;;;;;;;2.63;1.88;;;;;;;;;;4995254;28;20052;-65
2023/10/28 04:25:47;;;;;;;2.97;1.85;;;;;;;;;;4995320;28;20088;-65
2023/10/28 04:28:12;;;;;;;1.95;1.85;;;;;;;;;;4995232;28;20044;-65
2023/10/28 04:30:38;;;;;;;2.10;1.90;;;;;;;;;;4994956;28;20027;-65
2023/10/28 04:33:05;;;;;;;2.28;1.95;;;;;;;;;;4977436;28;20121;-65
2023/10/28 04:35:30;;;;;;;2.08;1.98;;;;;;;;;;4994848;28;20030;-64
2023/10/28 04:37:56;;;;;;;2.17;1.98;;;;;;;;;;4977373;28;20023;-64
2023/10/28 04:40:21;;;;;;;2.38;1.77;;;;;;;;;;4995198;28;20041;-64
2023/10/28 04:42:47;;;;;;;1.98;1.85;;;;;;;;;;4977273;28;20026;-64
2023/10/28 04:45:12;;;;;;;1.60;1.48;;;;;;;;;;4994648;28;20045;-64
2023/10/28 04:47:38;;;;;;;1.83;1.73;;;;;;;;;;4994546;28;20192;-70
2023/10/28 04:50:04;;;;;;;2.72;1.83;;;;;;;;;;4994468;28;20116;-71
2023/10/28 04:52:30;;;;;;;1.65;1.55;;;;;;;;;;4994977;28;20378;-71
2023/10/28 04:54:56;;;;;;;2.40;1.83;;;;;;;;;;4995062;28;20042;-71
2023/10/28 04:57:21;;;;;;;1.80;1.70;;;;;;;;;;4993972;28;20036;-64
2023/10/28 04:59:47;;;;;;;2.00;1.90;;;;;;;;;;4994804;28;20026;-64
2023/10/28 05:02:13;;;;;;;1.75;1.45;;;;;;;;;;4993796;28;20524;-64
2023/10/28 05:04:38;;;;;;;2.00;1.80;;;;;;;;;;4976349;28;20462;-64
2023/10/28 05:07:04;;;;;;;2.03;1.83;;;;;;;;;;4994032;28;20037;-65
2023/10/28 05:09:29;;;;;;;1.88;1.70;;;;;;;;;;4993940;28;20061;-65
2023/10/28 05:11:56;;;;;;;1.60;1.50;;;;;;;;;;4993678;28;20386;-64
2023/10/28 05:14:21;;;;;;;2.58;1.85;;;;;;;;;;4993869;28;20027;-65
2023/10/28 05:16:47;;;;;;;5.57;2.10;;;;;;;;;;4976620;28;20034;-65
2023/10/28 05:19:12;;;;;;;3.83;2.35;;;;;;;;;;4992959;28;20041;-65
2023/10/28 05:21:38;;;;;;;2.25;2.15;;;;;;;;;;4992085;28;20113;-65
2023/10/28 05:24:03;;;;;;;3.92;2.15;;;;;;;;;;4974540;28;20116;-65
2023/10/28 05:26:29;;;;;;;2.53;2.10;;;;;;;;;;4992319;28;20034;-64
2023/10/28 05:28:54;;;;;;;2.03;1.88;;;;;;;;;;4974991;28;20355;-64
2023/10/28 05:31:23;;;;;;;4.07;2.35;;;;;;;;;;4974125;28;20106;-64
2023/10/28 05:33:48;;;;;;;3.60;2.35;;;;;;;;;;4992781;28;20489;-63
2023/10/28 05:36:16;;;;;;;2.58;2.38;;;;;;;;;;4993604;28;20038;-64
2023/10/28 05:38:41;;;;;;;2.58;2.38;;;;;;;;;;4993535;28;20037;-64
2023/10/28 05:41:09;;;;;;;2.30;1.85;;;;;;;;;;4962833;28;20030;-64
2023/10/28 05:43:34;;;;;;;2.15;1.83;;;;;;;;;;4997517;28;20042;-61
2023/10/28 05:46:00;;;;;;;1.98;1.88;;;;;;;;;;4997476;28;20042;-61
2023/10/28 05:48:25;;;;;;;4.18;2.72;;;;;;;;;;4997432;28;20037;-61
2023/10/28 05:50:52;;;;;;;3.05;2.80;;;;;;;;;;4997396;28;20033;-65
2023/10/28 05:53:17;;;;;;;4.53;2.63;;;;;;;;;;4979799;28;20045;-65
2023/10/28 05:55:43;;;;;;;2.22;1.98;;;;;;;;;;4996439;28;20026;-65
2023/10/28 05:58:08;;;;;;;3.33;1.95;;;;;;;;;;4996811;28;20417;-65
2023/10/28 06:00:34;;;;;;;3.17;2.30;;;;;;;;;;4996242;28;20027;-65
2023/10/28 06:02:59;;;;;;;3.33;2.15;;;;;;;;;;4996315;28;20034;-65
2023/10/28 06:05:25;;;;;;;2.78;2.20;;;;;;;;;;4995145;28;20030;-65
2023/10/28 06:07:51;;;;;;;4.85;2.65;;;;;;;;;;4996015;28;20046;-65
2023/10/28 06:10:16;;;;;;;3.10;2.65;;;;;;;;;;4993881;28;20454;-70
2023/10/28 06:12:41;;;;;;;5.05;2.50;;;;;;;;;;4992441;28;20031;-68
2023/10/28 06:15:07;;;;;;;2.83;2.60;;;;;;;;;;4994073;28;20494;-70
2023/10/28 06:17:35;;;;;;;5.75;2.80;;;;;;;;;;4989717;28;20069;-68
2023/10/28 06:20:00;;;;;;;3.00;2.70;;;;;;;;;;4989655;28;20042;-68
2023/10/28 06:22:26;;;;;;;2.80;2.35;;;;;;;;;;4989841;28;20049;-68
2023/10/28 06:24:53;;;;;;;3.17;2.33;;;;;;;;;;4987233;28;20038;-68
2023/10/28 06:27:18;;;;;;;3.13;2.22;;;;;;;;;;4988256;28;20281;-68
2023/10/28 06:29:43;;;;;;;2.30;2.10;;;;;;;;;;4995683;28;20095;-68
2023/10/28 06:32:10;;;;;;;3.15;2.63;;;;;;;;;;4996063;28;20029;-68
2023/10/28 06:34:35;;;;;;;3.00;2.25;;;;;;;;;;4995866;28;20113;-68
2023/10/28 06:37:01;;;;;;;4.82;3.08;;;;;;;;;;4994523;28;20177;-68
2023/10/28 06:39:26;;;;;;;2.38;2.05;;;;;;;;;;4990579;28;20149;-68
2023/10/28 06:41:52;;;;;;;2.85;2.40;;;;;;;;;;4989584;28;20129;-68
2023/10/28 06:44:23;;;;;;;2.85;2.60;;;;;;;;;;4979353;28;20496;-67
2023/10/28 06:46:48;;;;;;;4.25;2.63;;;;;;;;;;4989185;28;20126;-68
2023/10/28 06:49:14;;;;;;;4.45;2.67;;;;;;;;;;4972138;28;20064;-68
2023/10/28 06:51:39;;;;;;;4.43;2.78;;;;;;;;;;4974325;28;20145;-68
2023/10/28 06:54:06;;;;;;;3.53;2.35;;;;;;;;;;4976303;28;20088;-68
2023/10/28 06:56:31;;;;;;;2.72;2.15;;;;;;;;;;4995996;28;20034;-71
2023/10/28 06:58:57;;;;;;;3.15;2.20;;;;;;;;;;4980078;28;20068;-69
2023/10/28 07:01:22;;;;;;;3.85;2.38;;;;;;;;;;4995802;28;20117;-69
2023/10/28 07:03:49;;;;;;;2.88;2.17;;;;;;;;;;4996108;28;20026;-70
2023/10/28 07:06:15;;;;;;;2.65;2.45;;;;;;;;;;4993430;28;20035;-70
2023/10/28 07:08:41;;;;;;;2.28;1.98;;;;;;;;;;4994906;28;20024;-70
2023/10/28 07:11:07;;;;;;;2.03;1.85;;;;;;;;;;4993600;28;20069;-69
2023/10/28 07:13:33;;;;;;;3.80;1.80;;;;;;;;;;4995779;28;20084;-68
2023/10/28 07:16:02;;;;;;;1.83;1.73;;;;;;;;;;4996200;28;20062;-71
2023/10/28 07:18:27;;;;;;;2.28;1.80;;;;;;;;;;4995942;28;20031;-69
2023/10/28 07:20:53;;;;;;;2.40;1.63;;;;;;;;;;4996030;28;20026;-70
2023/10/28 07:23:20;;;;;;;2.33;2.03;;;;;;;;;;4995944;28;20034;-70
2023/10/28 07:25:45;;;;;;;2.05;1.77;;;;;;;;;;4995960;28;20030;-71
2023/10/28 07:28:13;;;;;;;2.15;1.77;;;;;;;;;;4978264;28;20514;-70
2023/10/28 07:30:51;;;;;;;3.28;2.03;;;;;;;;;;4996399;28;20382;-71
2023/10/28 07:33:17;;;;;;;2.20;1.98;;;;;;;;;;4996034;28;20105;-70
2023/10/28 07:35:47;;;;;;;1.77;1.38;;;;;;;;;;4995832;28;20033;-70
2023/10/28 07:38:14;;;;;;;2.28;2.03;;;;;;;;;;4995251;28;20038;-70
2023/10/28 07:40:40;;;;;;;2.28;1.67;;;;;;;;;;4994878;28;20422;-70
2023/10/28 07:43:06;;;;;;;2.03;1.85;;;;;;;;;;4994458;28;20030;-70
2023/10/28 07:45:33;;;;;;;2.63;2.20;;;;;;;;;;4994493;28;20034;-70
2023/10/28 07:47:58;;;;;;;2.42;1.90;;;;;;;;;;4995089;28;20036;-70
2023/10/28 10:44:42;;;;;;;0.93;0.90;;;;;;;;;;5009959;28;20104;-65
2023/10/28 10:47:08;;;;;;;2.03;1.00;;;;;;;;;;4998675;28;20531;-65
2023/10/28 10:49:35;;;;;;;1.50;1.23;;;;;;;;;;4999147;28;20454;-65
2023/10/28 10:52:03;;;;;;;3.75;1.70;;;;;;;;;;5031548;28;20025;-65
2023/10/28 10:54:30;;;;;;;1.48;1.00;;;;;;;;;;5016585;28;20142;-65
2023/10/28 10:56:56;;;;;;;1.42;1.20;;;;;;;;;;5030078;28;20037;-65
2023/10/28 10:59:21;;;;;;;3.30;0.80;;;;;;;;;;5015775;28;20033;-65
2023/10/28 11:01:52;;;;;;;1.30;0.80;;;;;;;;;;5016233;28;20410;-66
2023/10/28 11:04:18;;;;;;;2.53;1.02;;;;;;;;;;4998701;28;20473;-72
2023/10/28 11:06:46;;;;;;;2.08;0.98;;;;;;;;;;5015712;28;20018;-72
2023/10/28 11:09:15;;;;;;;2.28;0.85;;;;;;;;;;5016336;28;20034;-72
2023/10/28 11:11:45;;;;;;;1.23;0.90;;;;;;;;;;4998221;28;20037;-72
2023/10/28 11:14:10;;;;;;;1.83;0.88;;;;;;;;;;4998629;28;20038;-72
2023/10/28 11:16:38;;;;;;;0.98;0.90;;;;;;;;;;5015804;28;20153;-72
2023/10/28 11:19:04;;;;;;;1.50;0.95;;;;;;;;;;5015667;28;20033;-71
2023/10/28 11:21:30;;;;;;;1.08;1.00;;;;;;;;;;5015888;28;20033;-71
2023/10/28 11:23:56;;;;;;;2.97;1.10;;;;;;;;;;5015912;28;20154;-71
2023/10/28 11:26:22;;;;;;;1.65;1.20;;;;;;;;;;5015265;28;20486;-71
2023/10/28 11:28:48;;;;;;;1.25;1.02;;;;;;;;;;4998014;28;20029;-71
2023/10/28 11:31:18;;;;;;;1.73;1.00;;;;;;;;;;5015092;28;20390;-71
2023/10/28 11:33:45;;;;;;;1.90;0.90;;;;;;;;;;5015734;28;20034;-71
2023/10/28 11:36:11;;;;;;;1.58;0.90;;;;;;;;;;5015417;28;20108;-71
2023/10/28 11:38:36;;;;;;;0.88;0.88;;;;;;;;;;5014430;28;20453;-71
2023/10/28 11:41:06;;;;;;;2.97;0.90;;;;;;;;;;4997883;28;20037;-71
2023/10/28 11:43:31;;;;;;;2.08;0.82;;;;;;;;;;5015230;28;20034;-71
2023/10/28 11:45:57;;;;;;;1.67;0.80;;;;;;;;;;5015293;28;20041;-71
2023/10/28 11:48:22;;;;;;;0.70;0.70;;;;;;;;;;4998277;28;20083;-71
2023/10/28 11:50:48;;;;;;;1.05;0.80;;;;;;;;;;5015422;28;20026;-71
2023/10/28 11:53:16;;;;;;;0.65;0.65;;;;;;;;;;4997881;28;20022;-71
2023/10/28 11:55:42;;;;;;;2.05;1.23;;;;;;;;;;5015381;28;20116;-71
2023/10/28 11:58:10;;;;;;;0.63;0.60;;;;;;;;;;4997915;28;20104;-71
2023/10/28 12:00:35;;;;;;;0.95;0.95;;;;;;;;;;5014905;28;20454;-71
2023/10/28 12:03:04;;;;;;;1.98;0.70;;;;;;;;;;5015379;28;20030;-71
2023/10/28 12:05:29;;;;;;;0.75;0.73;;;;;;;;;;5014892;28;20035;-71
2023/10/28 12:07:55;;;;;;;1.70;0.77;;;;;;;;;;5015280;28;20469;-71
2023/10/28 12:10:20;;;;;;;1.05;0.73;;;;;;;;;;4997561;28;20035;-71
2023/10/28 12:12:46;;;;;;;1.90;0.75;;;;;;;;;;4997200;28;20033;-71
2023/10/28 12:15:11;;;;;;;1.60;1.00;;;;;;;;;;4997191;28;20025;-70
2023/10/28 12:17:36;;;;;;;1.05;0.63;;;;;;;;;;4997203;28;20009;-63
2023/10/28 12:20:02;;;;;;;2.35;0.90;;;;;;;;;;5015123;28;20040;-63
2023/10/28 12:22:28;;;;;;;1.10;0.73;;;;;;;;;;4996705;28;20078;-63
2023/10/28 12:24:53;;;;;;;1.02;0.65;;;;;;;;;;5014201;28;20061;-63
2023/10/28 12:27:20;;;;;;;1.05;0.75;;;;;;;;;;4996595;28;20022;-63
2023/10/28 12:29:45;;;;;;;1.80;1.13;;;;;;;;;;5014048;28;20160;-63
2023/10/28 12:32:10;;;;;;;1.10;1.00;;;;;;;;;;5013744;28;20061;-63
2023/10/28 12:34:37;;;;;;;0.90;0.80;;;;;;;;;;5013829;28;20049;-63
2023/10/28 12:37:03;;;;;;;1.05;0.93;;;;;;;;;;5013276;28;20053;-63
2023/10/28 12:39:29;;;;;;;2.30;1.00;;;;;;;;;;5013985;28;20038;-63
2023/10/28 12:41:55;;;;;;;0.80;0.80;;;;;;;;;;5013949;28;20042;-63
2023/10/28 12:44:20;;;;;;;1.30;1.20;;;;;;;;;;5018733;28;20079;-63
2023/10/28 12:46:46;;;;;;;2.67;1.33;;;;;;;;;;5019486;28;20072;-63
2023/10/28 12:49:11;;;;;;;2.55;1.92;;;;;;;;;;4996005;28;20036;-63
2023/10/28 12:51:37;;;;;;;1.48;0.88;;;;;;;;;;5013634;28;20038;-63
2023/10/28 12:54:04;;;;;;;1.17;1.02;;;;;;;;;;5013516;28;20041;-64
2023/10/28 12:56:31;;;;;;;2.05;1.13;;;;;;;;;;5013683;28;20030;-63
2023/10/28 12:58:56;;;;;;;2.03;1.30;;;;;;;;;;4995220;28;20038;-63
2023/10/28 13:01:25;;;;;;;1.58;1.15;;;;;;;;;;5013005;28;20083;-63
2023/10/28 13:03:50;;;;;;;1.25;1.05;;;;;;;;;;5013245;28;20369;-63
2023/10/28 13:06:15;;;;;;;3.47;1.45;;;;;;;;;;5013479;28;20029;-64
2023/10/28 13:08:41;;;;;;;1.50;1.23;;;;;;;;;;5012971;28;20026;-63
2023/10/28 13:11:07;;;;;;;1.27;1.17;;;;;;;;;;4995872;28;20030;-64
2023/10/28 13:13:32;;;;;;;2.00;1.27;;;;;;;;;;5013545;28;20030;-64
2023/10/28 13:16:00;;;;;;;1.70;1.60;;;;;;;;;;5013657;28;20040;-64
2023/10/28 13:18:26;;;;;;;2.03;1.65;;;;;;;;;;5012695;28;20034;-64
2023/10/28 13:20:51;;;;;;;1.50;1.40;;;;;;;;;;5012593;28;20040;-63
2023/10/28 13:23:17;;;;;;;2.20;1.63;;;;;;;;;;5012262;28;20037;-63
2023/10/28 13:25:43;;;;;;;2.03;1.70;;;;;;;;;;5011949;28;20022;-64
2023/10/28 13:28:11;;;;;;;1.45;1.35;;;;;;;;;;5013345;28;20149;-63
2023/10/28 13:30:37;;;;;;;1.67;1.58;;;;;;;;;;5013493;28;20026;-62
2023/10/28 13:33:04;;;;;;;1.73;1.38;;;;;;;;;;5013449;28;20022;-62
2023/10/28 13:35:29;;;;;;;1.67;1.58;;;;;;;;;;5013173;28;20029;-63
2023/10/28 13:37:56;;;;;;;2.05;1.50;;;;;;;;;;4995732;28;20431;-63
2023/10/28 13:40:22;;;;;;;1.70;1.60;;;;;;;;;;5013333;28;20028;-61
2023/10/28 13:42:47;;;;;;;2.92;1.83;;;;;;;;;;5022235;28;20364;-61
2023/10/28 13:45:13;;;;;;;2.28;2.00;;;;;;;;;;5020031;28;20480;-61
2023/10/28 13:47:39;;;;;;;3.83;2.13;;;;;;;;;;5002047;28;20058;-67
2023/10/28 13:50:05;;;;;;;2.30;2.10;;;;;;;;;;5020483;28;20022;-68
2023/10/28 13:52:32;;;;;;;2.00;1.90;;;;;;;;;;5022169;28;20063;-62
2023/10/28 13:54:57;;;;;;;2.47;1.92;;;;;;;;;;5001929;28;20030;-62
2023/10/28 13:57:23;;;;;;;3.42;2.22;;;;;;;;;;5027910;28;20053;-68
2023/10/28 13:59:48;;;;;;;4.72;2.85;;;;;;;;;;4999197;28;20030;-67
2023/10/28 14:02:14;;;;;;;6.88;4.40;;;;;;;;;;5035489;28;20369;-67
2023/10/28 14:04:41;;;;;;;10.43;6.20;;;;;;;;;;5035031;28;20013;-67
2023/10/28 14:07:06;;;;;;;5.57;4.10;;;;;;;;;;5022896;28;20032;-67
2023/10/28 14:09:33;;;;;;;7.25;4.13;;;;;;;;;;5025359;28;20017;-68
2023/10/28 14:11:58;;;;;;;3.63;2.83;;;;;;;;;;4998701;28;20034;-67
2023/10/28 14:14:25;;;;;;;3.28;2.50;;;;;;;;;;5030710;28;20039;-67
2023/10/28 14:16:50;;;;;;;2.13;2.03;;;;;;;;;;5036393;28;20022;-68
2023/10/28 14:19:15;;;;;;;2.53;2.33;;;;;;;;;;5036402;28;20116;-68
2023/10/28 14:21:41;;;;;;;2.50;2.30;;;;;;;;;;5018724;28;20037;-67
2023/10/28 14:24:06;;;;;;;2.22;1.45;;;;;;;;;;5009861;28;20113;-67
2023/10/28 14:26:32;;;;;;;1.55;1.45;;;;;;;;;;5025712;28;20036;-67
2023/10/28 14:28:57;;;;;;;1.85;1.50;;;;;;;;;;5021360;28;20401;-67
2023/10/28 14:31:22;;;;;;;1.60;1.50;;;;;;;;;;5023714;28;20481;-66
2023/10/28 14:33:48;;;;;;;1.80;1.30;;;;;;;;;;4997838;28;20037;-67
2023/10/28 14:36:13;;;;;;;1.70;1.60;;;;;;;;;;5016341;28;20022;-67
2023/10/28 14:38:42;;;;;;;1.50;1.40;;;;;;;;;;5009643;28;20041;-67
2023/10/28 14:41:08;;;;;;;1.77;1.65;;;;;;;;;;5032116;28;20511;-67
2023/10/28 14:43:33;;;;;;;1.58;1.45;;;;;;;;;;5035080;28;20025;-68
2023/10/28 14:45:59;;;;;;;2.55;1.60;;;;;;;;;;5034244;28;20045;-66
2023/10/28 14:48:25;;;;;;;2.10;1.80;;;;;;;;;;5021826;28;20485;-67
2023/10/28 14:50:51;;;;;;;1.50;1.40;;;;;;;;;;5015635;28;20148;-64
2023/10/28 14:53:17;;;;;;;3.72;1.60;;;;;;;;;;4997776;28;20057;-61
2023/10/28 14:55:45;;;;;;;1.73;1.60;;;;;;;;;;5016134;28;20026;-61
2023/10/28 14:58:13;;;;;;;1.65;1.48;;;;;;;;;;5015496;28;20077;-61
2023/10/28 15:00:42;;;;;;;3.35;1.65;;;;;;;;;;4997917;28;20030;-61
2023/10/28 15:03:07;;;;;;;5.00;2.10;;;;;;;;;;4998093;28;20116;-62
2023/10/28 15:05:42;;;;;;;9.85;2.92;;;;;;;;;;4998057;28;20113;-62
2023/10/28 15:08:10;;;;;;;2.28;1.90;;;;;;;;;;5015581;28;20373;-62
2023/10/28 15:10:36;;;;;;;3.78;2.10;;;;;;;;;;5015756;28;20075;-62
2023/10/28 15:13:02;;;;;;;2.00;1.80;;;;;;;;;;5014273;28;20021;-61
2023/10/28 15:15:32;;;;;;;2.22;2.03;;;;;;;;;;5015644;28;20034;-61
2023/10/28 15:17:58;;;;;;;2.17;1.98;;;;;;;;;;4998035;28;20029;-60
2023/10/28 15:20:23;;;;;;;2.83;2.63;;;;;;;;;;5015284;28;20456;-61
2023/10/28 15:22:48;;;;;;;3.10;2.42;;;;;;;;;;5015281;28;20034;-61
2023/10/28 15:25:15;;;;;;;2.97;2.67;;;;;;;;;;5014140;28;20064;-60
2023/10/28 15:27:41;;;;;;;3.83;2.80;;;;;;;;;;5014180;28;20041;-60
2023/10/28 15:30:10;;;;;;;2.95;2.63;;;;;;;;;;5013329;28;20033;-60
2023/10/28 15:32:36;;;;;;;5.28;3.53;;;;;;;;;;5014163;28;20025;-60
2023/10/28 15:35:05;;;;;;;4.78;3.75;;;;;;;;;;5014205;28;20155;-60
2023/10/28 15:37:30;;;;;;;5.05;3.42;;;;;;;;;;5014190;28;20033;-60
2023/10/28 15:39:56;;;;;;;7.00;4.18;;;;;;;;;;5014238;28;20025;-60
2023/10/28 15:42:22;;;;;;;4.10;3.60;;;;;;;;;;4997246;28;20044;-60
2023/10/28 15:44:47;;;;;;;4.25;3.33;;;;;;;;;;5014970;28;20029;-60
2023/10/28 15:47:13;;;;;;;2.88;2.55;;;;;;;;;;5014885;28;20040;-61
2023/10/28 15:49:38;;;;;;;4.07;2.95;;;;;;;;;;4997474;28;20450;-60
2023/10/28 15:52:04;;;;;;;4.43;4.03;;;;;;;;;;5014697;28;20060;-60
2023/10/28 15:54:32;;;;;;;5.72;4.20;;;;;;;;;;5014741;28;20430;-61
2023/10/28 15:56:57;;;;;;;5.53;4.05;;;;;;;;;;5014865;28;20034;-61
2023/10/28 15:59:23;;;;;;;6.28;4.40;;;;;;;;;;5014530;28;20370;-62
2023/10/28 16:01:48;;;;;;;6.13;4.30;;;;;;;;;;5015064;28;20037;-63
2023/10/28 16:04:14;;;;;;;5.88;4.13;;;;;;;;;;4996687;28;20026;-63
2023/10/28 16:06:45;;;;;;;7.28;4.82;;;;;;;;;;5014268;28;20034;-63
2023/10/28 16:09:12;;;;;;;8.15;4.93;;;;;;;;;;5014066;28;20022;-61
2023/10/28 16:11:37;;;;;;;10.65;6.25;;;;;;;;;;5014067;28;20022;-65
2023/10/28 16:14:04;;;;;;;8.13;6.32;;;;;;;;;;5014487;28;20544;-63
2023/10/28 16:16:29;;;;;;;15.15;9.23;;;;;;;;;;5014167;28;20030;-64
2023/10/28 16:18:57;;;;;;;21.73;13.05;;;;;;;;;;5006820;28;20111;-62
2023/10/28 16:21:22;;;;;;;19.35;12.25;;;;;;;;;;5012920;28;20041;-64
2023/10/28 16:23:50;;;;;;;13.43;8.10;;;;;;;;;;5012114;28;20037;-61
2023/10/28 16:26:22;;;;;;;10.95;6.70;;;;;;;;;;4994792;28;20124;-64
2023/10/28 16:28:48;;;;;;;8.00;5.05;;;;;;;;;;5012920;28;20425;-65
2023/10/28 16:31:14;;;;;;;9.50;6.45;;;;;;;;;;5012819;28;20037;-62
2023/10/28 16:33:39;;;;;;;12.63;8.38;;;;;;;;;;4994327;28;20111;-61
2023/10/28 16:36:06;;;;;;;9.18;6.10;;;;;;;;;;5011980;28;20042;-58
2023/10/28 16:38:31;;;;;;;11.25;6.50;;;;;;;;;;4995225;28;20111;-61
2023/10/28 16:40:57;;;;;;;14.02;7.95;;;;;;;;;;5013138;28;20034;-66
2023/10/28 16:43:24;;;;;;;11.90;7.50;;;;;;;;;;4995588;28;20080;-66
2023/10/28 16:45:55;;;;;;;7.22;5.82;;;;;;;;;;5013015;28;20112;-67
2023/10/28 16:48:21;;;;;;;9.40;6.15;;;;;;;;;;5012079;28;20053;-63
2023/10/28 16:50:47;;;;;;;8.35;5.75;;;;;;;;;;5012495;28;20477;-67
2023/10/28 16:53:13;;;;;;;9.52;6.63;;;;;;;;;;5011916;28;20036;-69
2023/10/28 16:55:39;;;;;;;10.75;8.98;;;;;;;;;;5011681;28;20053;-70
2023/10/28 16:58:05;;;;;;;9.60;8.63;;;;;;;;;;5011504;28;20069;-69
2023/10/28 17:00:30;;;;;;;6.90;5.18;;;;;;;;;;5011225;28;20101;-70
2023/10/28 17:02:56;;;;;;;6.65;4.45;;;;;;;;;;4993455;28;20464;-70
2023/10/28 17:05:22;;;;;;;6.40;4.63;;;;;;;;;;5011474;28;20045;-70
2023/10/28 17:07:48;;;;;;;6.60;4.35;;;;;;;;;;4993879;28;20049;-70
2023/10/28 17:10:14;;;;;;;9.65;4.93;;;;;;;;;;5011520;28;20116;-69
2023/10/28 17:12:39;;;;;;;6.05;4.22;;;;;;;;;;5011575;28;20101;-68
2023/10/28 17:15:05;;;;;;;7.10;4.05;;;;;;;;;;5011304;28;20473;-68
2023/10/28 17:17:31;;;;;;;7.55;4.78;;;;;;;;;;5011321;28;20025;-69
2023/10/28 17:19:56;;;;;;;7.32;4.38;;;;;;;;;;5011193;28;20044;-69
2023/10/28 17:22:23;;;;;;;8.32;3.42;;;;;;;;;;4993763;28;20114;-69
2023/10/28 17:24:48;;;;;;;10.20;5.32;;;;;;;;;;5011316;28;20069;-69
2023/10/28 17:27:13;;;;;;;6.32;3.97;;;;;;;;;;5010997;28;20069;-70